createdAt,value
2023-01-23T00:00:27.220Z,102287.75
2023-01-23T00:02:54.502Z,102293.03
2023-01-23T00:05:21.856Z,102279.13
2023-01-23T00:07:49.275Z,102297.44
2023-01-23T00:10:17.067Z,102293.03
2023-01-23T00:12:46.095Z,102298.31
2023-01-23T00:15:13.975Z,102299.28
2023-01-23T00:17:42.099Z,102301.84
2023-01-23T00:20:13.422Z,102311.34
2023-01-23T00:22:41.013Z,102312.03
2023-01-23T00:25:08.670Z,102322.41
2023-01-23T00:27:35.966Z,102319.84
2023-01-23T00:30:04.666Z,102320.66
2023-01-23T00:32:32.046Z,102319.97
2023-01-23T00:35:02.649Z,102319.84
2023-01-23T00:37:30.012Z,102320.66
2023-01-23T00:39:57.361Z,102325.94
2023-01-23T00:42:24.833Z,102316.94
2023-01-23T00:44:52.167Z,102334.38
2023-01-23T00:47:19.459Z,102331.72
2023-01-23T00:49:48.702Z,102327.31
2023-01-23T00:52:15.975Z,102327.69
2023-01-23T00:54:43.451Z,102276.75
2023-01-23T00:57:10.852Z,102330.22
2023-01-23T00:59:38.184Z,102332.59
2023-01-23T01:02:05.514Z,102325.75
2023-01-23T01:04:33.039Z,102324.94
2023-01-23T01:07:03.494Z,102337.00
2023-01-23T01:09:30.957Z,102332.19
2023-01-23T01:11:58.703Z,102333.38
2023-01-23T01:14:26.000Z,102339.25
2023-01-23T01:16:53.393Z,102331.31
2023-01-23T01:19:21.252Z,102339.25
2023-01-23T01:21:48.518Z,102340.34
2023-01-23T01:24:15.944Z,102337.78
2023-01-23T01:26:43.365Z,102328.09
2023-01-23T01:29:10.614Z,102335.06
2023-01-23T01:31:37.890Z,102340.53
2023-01-23T01:34:05.182Z,102327.88
2023-01-23T01:36:32.450Z,102338.97
2023-01-23T01:38:59.825Z,102344.75
2023-01-23T01:41:27.999Z,102348.66
2023-01-23T01:43:57.420Z,102352.06
2023-01-23T01:46:27.361Z,102354.50
2023-01-23T01:49:15.243Z,102344.31
2023-01-23T01:52:14.912Z,102350.22
2023-01-23T01:54:46.204Z,102357.84
2023-01-23T01:57:38.060Z,102353.34
2023-01-23T02:00:10.909Z,102358.22
2023-01-23T02:02:49.764Z,102356.16
2023-01-23T02:05:30.354Z,102358.81
2023-01-23T02:08:05.885Z,102355.47
2023-01-23T02:10:35.141Z,102361.38
2023-01-23T02:13:31.448Z,102363.91
2023-01-23T02:16:01.226Z,102360.38
2023-01-23T02:18:31.883Z,102358.63
2023-01-23T02:21:05.945Z,102353.72
2023-01-23T02:23:48.573Z,102367.22
2023-01-23T02:26:27.950Z,102373.00
2023-01-23T02:28:56.297Z,102359.78
2023-01-23T02:31:27.902Z,102369.56
2023-01-23T02:33:58.376Z,102373.88
2023-01-23T02:36:27.175Z,102367.94
2023-01-23T02:39:09.025Z,102358.91
2023-01-23T02:41:41.037Z,102353.09
2023-01-23T02:44:32.530Z,102358.41
2023-01-23T02:47:08.400Z,102361.72
2023-01-23T02:49:35.922Z,102352.69
2023-01-23T02:52:06.928Z,102360.44
2023-01-23T02:54:36.133Z,102363.88
2023-01-23T02:57:03.718Z,102369.75
2023-01-23T02:59:50.002Z,102370.63
2023-01-23T03:02:17.603Z,102378.34
2023-01-23T03:04:44.881Z,102386.09
2023-01-23T03:07:12.173Z,102374.25
2023-01-23T03:09:39.905Z,102360.94
2023-01-23T03:12:07.744Z,102384.53
2023-01-23T03:14:35.155Z,102377.59
2023-01-23T03:17:02.365Z,102369.84
2023-01-23T03:19:34.115Z,102367.22
2023-01-23T03:22:01.386Z,102364.88
2023-01-23T03:24:28.802Z,102364.66
2023-01-23T03:26:56.246Z,102355.84
2023-01-23T03:29:45.260Z,102357.59
2023-01-23T03:32:15.760Z,102370.63
2023-01-23T03:34:44.782Z,102363.75
2023-01-23T03:37:12.652Z,102373.94
2023-01-23T03:40:01.164Z,102374.84
2023-01-23T03:42:28.287Z,102371.31
2023-01-23T03:44:57.800Z,102383.25
2023-01-23T03:47:28.058Z,102385.91
2023-01-23T03:49:55.984Z,102392.06
2023-01-23T03:52:24.330Z,102394.81
2023-01-23T03:54:51.780Z,102396.28
2023-01-23T03:57:19.351Z,102388.53
2023-01-23T04:00:05.514Z,102388.53
2023-01-23T04:02:45.440Z,102393.41
2023-01-23T04:05:14.423Z,102384.72
2023-01-23T04:07:41.576Z,102382.63
2023-01-23T04:10:10.767Z,102384.38
2023-01-23T04:12:39.640Z,102381.56
2023-01-23T04:15:08.154Z,102391.81
2023-01-23T04:17:35.218Z,102392.81
2023-01-23T04:20:04.389Z,102398.97
2023-01-23T04:22:32.095Z,102403.19
2023-01-23T04:24:59.228Z,102403.88
2023-01-23T04:27:26.287Z,102406.63
2023-01-23T04:29:55.454Z,102405.75
2023-01-23T04:32:22.560Z,102415.31
2023-01-23T04:34:49.694Z,102420.41
2023-01-23T04:37:17.743Z,102409.38
2023-01-23T04:39:45.943Z,102429.25
2023-01-23T04:42:13.999Z,102431.03
2023-01-23T04:44:52.313Z,102427.69
2023-01-23T04:47:39.415Z,102419.06
2023-01-23T04:50:10.547Z,102432.78
2023-01-23T04:52:39.139Z,102431.78
2023-01-23T04:55:06.839Z,102436.88
2023-01-23T04:57:33.864Z,102428.28
2023-01-23T05:00:20.133Z,102442.09
2023-01-23T05:02:48.706Z,102439.44
2023-01-23T05:05:21.402Z,102439.22
2023-01-23T05:07:51.525Z,102454.41
2023-01-23T05:10:19.385Z,102452.94
2023-01-23T05:12:48.120Z,102462.44
2023-01-23T05:15:15.514Z,102464.31
2023-01-23T05:17:44.725Z,102461.78
2023-01-23T05:20:13.477Z,102463.72
2023-01-23T05:22:52.777Z,102460.44
2023-01-23T05:25:27.126Z,102465.53
2023-01-23T05:27:55.684Z,102469.03
2023-01-23T05:30:23.960Z,102467.28
2023-01-23T05:32:55.765Z,102472.56
2023-01-23T05:35:22.871Z,102467.69
2023-01-23T05:37:53.794Z,102479.44
2023-01-23T05:40:23.847Z,102473.91
2023-01-23T05:43:23.239Z,102477.25
2023-01-23T05:46:17.180Z,102472.84
2023-01-23T05:48:51.916Z,102487.44
2023-01-23T05:51:21.347Z,102490.97
2023-01-23T05:53:48.971Z,102489.38
2023-01-23T05:56:17.714Z,102463.31
2023-01-23T05:59:05.529Z,102491.19
2023-01-23T06:01:58.786Z,102469.09
2023-01-23T06:04:55.840Z,102496.28
2023-01-23T06:07:37.798Z,102480.34
2023-01-23T06:10:09.839Z,102487.22
2023-01-23T06:12:37.575Z,102480.16
2023-01-23T06:15:05.462Z,102482.81
2023-01-23T06:17:32.928Z,102499.16
2023-01-23T06:20:00.087Z,102504.25
2023-01-23T06:22:28.650Z,102507.00
2023-01-23T06:25:11.038Z,102509.53
2023-01-23T06:27:38.340Z,102516.63
2023-01-23T06:30:08.799Z,102515.16
2023-01-23T06:32:41.860Z,102539.19
2023-01-23T06:35:10.644Z,102534.09
2023-01-23T06:37:40.835Z,102527.13
2023-01-23T06:40:13.546Z,102527.91
2023-01-23T06:42:45.594Z,102534.31
2023-01-23T06:45:13.000Z,102542.91
2023-01-23T06:47:40.093Z,102539.41
2023-01-23T06:50:08.299Z,102546.25
2023-01-23T06:52:37.947Z,102540.28
2023-01-23T06:55:06.882Z,102548.59
2023-01-23T06:57:35.081Z,102542.69
2023-01-23T07:00:03.939Z,102535.44
2023-01-23T07:02:32.432Z,102548.00
2023-01-23T07:04:59.814Z,102553.31
2023-01-23T07:07:27.446Z,102545.25
2023-01-23T07:09:54.591Z,102558.19
2023-01-23T07:12:24.534Z,102556.44
2023-01-23T07:14:51.769Z,102555.44
2023-01-23T07:17:24.163Z,102555.34
2023-01-23T07:19:51.933Z,102557.09
2023-01-23T07:22:21.125Z,102575.25
2023-01-23T07:24:48.759Z,102569.38
2023-01-23T07:27:15.969Z,102572.78
2023-01-23T07:29:43.367Z,102575.66
2023-01-23T07:32:11.324Z,102577.41
2023-01-23T07:34:38.800Z,102573.91
2023-01-23T07:37:06.116Z,102576.94
2023-01-23T07:39:33.228Z,102570.97
2023-01-23T07:42:00.567Z,102566.00
2023-01-23T07:44:28.956Z,102577.47
2023-01-23T07:46:57.182Z,102569.63
2023-01-23T07:49:24.223Z,102575.13
2023-01-23T07:51:51.260Z,102576.91
2023-01-23T07:54:18.348Z,102576.91
2023-01-23T07:56:45.399Z,102587.72
2023-01-23T07:59:13.530Z,102586.28
2023-01-23T08:01:40.581Z,102588.91
2023-01-23T08:04:07.746Z,102584.63
2023-01-23T08:06:34.971Z,102593.81
2023-01-23T08:09:02.053Z,102597.69
2023-01-23T08:11:29.123Z,102607.00
2023-01-23T08:13:56.275Z,102593.97
2023-01-23T08:16:23.348Z,102593.97
2023-01-23T08:18:50.482Z,102600.84
2023-01-23T08:21:17.925Z,102605.34
2023-01-23T08:23:46.528Z,102602.81
2023-01-23T08:26:16.086Z,102609.88
2023-01-23T08:28:45.025Z,102599.03
2023-01-23T08:31:13.684Z,102601.84
2023-01-23T08:33:41.311Z,102590.59
2023-01-23T08:36:11.500Z,102600.50
2023-01-23T08:38:38.785Z,102605.41
2023-01-23T08:41:06.836Z,102607.53
2023-01-23T08:43:34.036Z,102605.19
2023-01-23T08:46:01.487Z,102611.84
2023-01-23T08:48:29.192Z,102611.84
2023-01-23T08:51:01.916Z,102613.84
2023-01-23T08:53:30.131Z,102604.41
2023-01-23T08:56:04.969Z,102613.16
2023-01-23T08:58:32.136Z,102611.56
2023-01-23T09:00:59.774Z,102611.91
2023-01-23T09:03:27.807Z,102613.84
2023-01-23T09:05:55.020Z,102619.75
2023-01-23T09:08:21.986Z,102614.25
2023-01-23T09:10:49.046Z,102621.28
2023-01-23T09:13:16.368Z,102621.97
2023-01-23T09:15:43.439Z,102620.88
2023-01-23T09:18:10.568Z,102631.09
2023-01-23T09:20:38.741Z,102629.13
2023-01-23T09:23:05.838Z,102637.94
2023-01-23T09:25:32.914Z,102639.72
2023-01-23T09:27:59.968Z,102636.38
2023-01-23T09:30:27.099Z,102632.16
2023-01-23T09:32:54.304Z,102630.28
2023-01-23T09:35:23.513Z,102626.38
2023-01-23T09:38:00.102Z,102630.13
2023-01-23T09:40:30.733Z,102635.22
2023-01-23T09:43:03.447Z,102628.59
2023-01-23T09:45:32.694Z,102626.03
2023-01-23T09:48:23.059Z,102616.63
2023-01-23T09:51:16.417Z,102627.03
2023-01-23T09:53:43.561Z,102630.34
2023-01-23T09:56:31.357Z,102632.34
2023-01-23T09:59:01.254Z,102623.22
2023-01-23T10:01:31.000Z,102626.06
2023-01-23T10:04:02.497Z,102631.19
2023-01-23T10:06:32.665Z,102621.47
2023-01-23T10:09:28.177Z,102626.06
2023-01-23T10:12:13.361Z,102617.84
2023-01-23T10:14:58.957Z,102632.38
2023-01-23T10:17:44.095Z,102631.78
2023-01-23T10:20:20.083Z,102641.97
2023-01-23T10:23:08.749Z,102633.75
2023-01-23T10:25:40.518Z,102627.88
2023-01-23T10:28:38.227Z,102630.91
2023-01-23T10:31:16.404Z,102633.56
2023-01-23T10:33:48.330Z,102634.31
2023-01-23T10:36:47.787Z,102634.91
2023-01-23T10:39:25.668Z,102638.47
2023-01-23T10:42:01.495Z,102635.31
2023-01-23T10:44:29.311Z,102630.03
2023-01-23T10:47:03.828Z,102641.22
2023-01-23T10:49:35.817Z,102642.16
2023-01-23T10:52:03.207Z,102645.72
2023-01-23T10:54:32.627Z,102611.59
2023-01-23T10:57:03.278Z,102634.75
2023-01-23T10:59:35.986Z,102631.53
2023-01-23T11:02:15.262Z,102629.94
2023-01-23T11:04:44.524Z,102634.34
2023-01-23T11:07:23.736Z,102625.94
2023-01-23T11:09:56.684Z,102631.44
2023-01-23T11:12:29.856Z,102631.31
2023-01-23T11:15:26.350Z,102628.69
2023-01-23T11:17:56.265Z,102624.56
2023-01-23T11:20:36.104Z,102621.44
2023-01-23T11:23:09.429Z,102630.47
2023-01-23T11:25:48.547Z,102631.72
2023-01-23T11:28:34.204Z,102632.16
2023-01-23T11:31:14.694Z,102624.78
2023-01-23T11:34:05.534Z,102618.31
2023-01-23T11:36:58.534Z,102619.19
2023-01-23T11:39:36.433Z,102623.41
2023-01-23T11:42:04.421Z,102629.13
2023-01-23T11:44:45.096Z,102631.47
2023-01-23T11:47:40.767Z,102627.94
2023-01-23T11:50:54.415Z,102631.28
2023-01-23T11:53:41.859Z,102631.06
2023-01-23T11:56:44.160Z,102631.06
2023-01-23T11:59:53.140Z,102633.53
2023-01-23T12:02:32.423Z,102626.19
2023-01-23T12:05:06.152Z,102627.94
2023-01-23T12:07:48.154Z,102631.47
2023-01-23T12:10:22.237Z,102623.03
2023-01-23T12:12:50.755Z,102613.69
2023-01-23T12:15:42.166Z,102618.09
2023-01-23T12:18:57.152Z,102625.47
2023-01-23T12:21:44.181Z,102625.94
2023-01-23T12:24:47.658Z,102624.19
2023-01-23T12:27:27.075Z,102616.75
2023-01-23T12:30:12.593Z,102621.06
2023-01-23T12:33:12.926Z,102615.75
2023-01-23T12:35:48.184Z,102622.44
2023-01-23T12:38:40.241Z,102620.84
2023-01-23T12:41:10.097Z,102622.44
2023-01-23T12:43:55.506Z,102626.94
2023-01-23T12:46:34.281Z,102622.44
2023-01-23T12:49:13.987Z,102621.66
2023-01-23T12:51:46.197Z,102620.84
2023-01-23T12:54:20.528Z,102621.06
2023-01-23T12:59:30.649Z,102623.63
2023-01-23T13:02:30.851Z,102624.19
2023-01-23T13:05:07.958Z,102629.28
2023-01-23T13:07:56.049Z,102629.50
2023-01-23T13:11:03.574Z,102624.38
2023-01-23T13:13:31.342Z,102620.47
2023-01-23T13:16:09.350Z,102636.44
2023-01-23T13:18:57.670Z,102633.38
2023-01-23T13:21:43.836Z,102622.78
2023-01-23T13:25:12.076Z,102628.09
2023-01-23T13:27:42.229Z,102634.31
2023-01-23T13:30:27.250Z,102621.44
2023-01-23T13:33:00.762Z,102618.69
2023-01-23T13:35:40.058Z,102619.56
2023-01-23T13:38:37.713Z,102625.34
2023-01-23T13:41:04.891Z,102622.59
2023-01-23T13:43:54.903Z,102619.25
2023-01-23T14:21:56.313Z,102632.59
2023-01-23T14:30:20.270Z,102612.69
2023-01-23T14:32:47.408Z,102622.97
2023-01-23T14:35:32.951Z,102620.22
2023-01-23T14:38:05.332Z,102628.47
2023-01-23T14:40:46.622Z,102623.16
2023-01-23T14:46:13.001Z,102626.88
2023-01-23T14:48:43.097Z,102612.97
2023-01-23T14:51:30.466Z,102625.13
2023-01-23T14:54:02.637Z,102626.88
2023-01-23T14:56:36.357Z,102629.22
2023-01-23T14:59:07.278Z,102633.38
2023-01-23T15:01:36.034Z,102613.50
2023-01-23T15:04:06.110Z,102630.19
2023-01-23T15:06:36.155Z,102642.06
2023-01-23T15:09:17.189Z,102643.59
2023-01-23T15:11:45.283Z,102643.53
2023-01-23T15:14:25.457Z,102645.88
2023-01-23T15:16:59.025Z,102647.41
2023-01-23T15:19:26.672Z,102653.28
2023-01-23T15:22:25.671Z,102653.88
2023-01-23T15:24:53.050Z,102656.41
2023-01-23T15:27:36.929Z,102666.81
2023-01-23T15:30:31.814Z,102667.38
2023-01-23T15:33:06.188Z,102675.59
2023-01-23T15:35:38.333Z,102674.72
2023-01-23T15:38:08.683Z,102656.16
2023-01-23T15:40:38.399Z,102672.25
2023-01-23T15:43:11.068Z,102673.47
2023-01-23T15:45:38.297Z,102679.56
2023-01-23T15:48:05.884Z,102676.88
2023-01-23T15:50:33.056Z,102667.75
2023-01-23T15:53:00.149Z,102679.22
2023-01-23T15:55:28.919Z,102677.34
2023-01-23T15:57:56.665Z,102679.56
2023-01-23T16:00:27.295Z,102679.34
2023-01-23T16:02:57.355Z,102687.09
2023-01-23T16:05:27.507Z,102680.91
2023-01-23T16:07:55.825Z,102677.34
2023-01-23T16:10:26.242Z,102686.19
2023-01-23T16:12:55.868Z,102685.44
2023-01-23T16:15:28.108Z,102692.84
2023-01-23T16:17:55.531Z,102691.09
2023-01-23T16:20:38.693Z,102698.19
2023-01-23T16:23:15.654Z,102687.75
2023-01-23T16:25:45.656Z,102693.97
2023-01-23T16:28:19.311Z,102696.41
2023-01-23T16:30:47.632Z,102689.53
2023-01-23T16:33:15.329Z,102687.56
2023-01-23T16:35:42.808Z,102689.13
2023-01-23T16:38:30.199Z,102693.13
2023-01-23T16:40:59.860Z,102688.91
2023-01-23T16:43:27.626Z,102692.44
2023-01-23T16:45:56.610Z,102686.47
2023-01-23T16:48:27.708Z,102681.16
2023-01-23T16:51:17.604Z,102680.69
2023-01-23T16:53:52.463Z,102678.16
2023-01-23T16:56:28.905Z,102672.84
2023-01-23T16:58:56.289Z,102687.34
2023-01-23T17:01:24.503Z,102688.91
2023-01-23T17:03:58.705Z,102696.66
2023-01-23T17:06:26.149Z,102688.47
2023-01-23T17:08:53.858Z,102699.09
2023-01-23T17:11:24.829Z,102702.22
2023-01-23T17:13:58.767Z,102709.06
2023-01-23T17:16:28.018Z,102709.06
2023-01-23T17:18:57.697Z,102705.56
2023-01-23T17:21:32.052Z,102707.31
2023-01-23T17:23:59.234Z,102691.63
2023-01-23T17:26:26.534Z,102709.06
2023-01-23T17:28:53.949Z,102716.72
2023-01-23T17:31:25.215Z,102709.06
2023-01-23T17:33:52.895Z,102692.38
2023-01-23T17:36:20.177Z,102702.00
2023-01-23T17:38:47.707Z,102709.75
2023-01-23T17:41:16.078Z,102709.75
2023-01-23T17:43:48.498Z,102719.25
2023-01-23T17:46:39.753Z,102717.72
2023-01-23T17:49:31.364Z,102716.91
2023-01-23T17:52:00.339Z,102724.56
2023-01-23T17:54:27.714Z,102713.97
2023-01-23T17:56:54.938Z,102721.59
2023-01-23T17:59:22.138Z,102697.63
2023-01-23T18:01:49.252Z,102706.44
2023-01-23T18:04:19.336Z,102716.22
2023-01-23T18:06:47.005Z,102706.44
2023-01-23T18:09:14.458Z,102725.69
2023-01-23T18:11:49.771Z,102727.28
2023-01-23T18:14:33.752Z,102728.81
2023-01-23T18:17:01.081Z,102728.81
2023-01-23T18:19:28.364Z,102714.88
2023-01-23T18:21:57.348Z,102720.19
2023-01-23T18:24:30.633Z,102697.19
2023-01-23T18:27:27.534Z,102721.72
2023-01-23T18:30:03.755Z,102720.84
2023-01-23T18:33:15.739Z,102711.53
2023-01-23T18:35:54.964Z,102718.22
2023-01-23T18:39:00.539Z,102723.31
2023-01-23T18:41:28.985Z,102719.19
2023-01-23T18:44:07.196Z,102720.84
2023-01-23T18:46:34.430Z,102719.75
2023-01-23T18:49:01.800Z,102722.66
2023-01-23T18:51:54.815Z,102723.53
2023-01-23T18:54:43.669Z,102730.72
2023-01-23T18:57:32.295Z,102732.38
2023-01-23T19:00:12.910Z,102733.25
2023-01-23T19:02:50.709Z,102732.38
2023-01-23T19:05:23.245Z,102729.03
2023-01-23T19:07:50.864Z,102733.91
2023-01-23T19:10:21.610Z,102735.88
2023-01-23T19:12:54.228Z,102732.38
2023-01-23T19:15:35.484Z,102737.47
2023-01-23T19:18:08.547Z,102737.25
2023-01-23T19:21:05.383Z,102732.63
2023-01-23T19:23:51.926Z,102738.81
2023-01-23T19:26:20.018Z,102731.91
2023-01-23T19:28:47.458Z,102740.56
2023-01-23T19:31:21.016Z,102732.28
2023-01-23T19:33:49.155Z,102733.03
2023-01-23T19:36:16.347Z,102743.69
2023-01-23T19:38:43.611Z,102748.56
2023-01-23T19:41:19.815Z,102730.66
2023-01-23T19:43:52.310Z,102741.25
2023-01-23T19:46:20.825Z,102714.50
2023-01-23T19:48:48.199Z,102743.03
2023-01-23T19:51:18.526Z,102744.81
2023-01-23T19:53:46.609Z,102743.22
2023-01-23T19:56:16.139Z,102743.22
2023-01-23T19:58:43.291Z,102739.72
2023-01-23T20:01:22.399Z,102750.13
2023-01-23T20:03:50.190Z,102741.03
2023-01-23T20:06:17.199Z,102742.03
2023-01-23T20:08:44.326Z,102741.91
2023-01-23T20:11:12.306Z,102745.25
2023-01-23T20:13:43.137Z,102741.34
2023-01-23T20:16:17.595Z,102735.28
2023-01-23T20:18:48.260Z,102714.72
2023-01-23T20:21:17.116Z,102733.72
2023-01-23T20:23:48.313Z,102745.03
2023-01-23T20:26:17.481Z,102710.72
2023-01-23T20:28:48.297Z,102737.25
2023-01-23T20:31:16.018Z,102751.13
2023-01-23T20:33:43.199Z,102741.69
2023-01-23T20:36:11.349Z,102748.31
2023-01-23T20:38:39.906Z,102747.44
2023-01-23T20:41:15.248Z,102744.81
2023-01-23T20:43:43.485Z,102746.56
2023-01-23T20:46:12.098Z,102751.44
2023-01-23T20:48:41.903Z,102755.88
2023-01-23T20:51:09.809Z,102762.66
2023-01-23T20:53:39.718Z,102758.22
2023-01-23T20:56:11.279Z,102744.34
2023-01-23T20:59:00.151Z,102758.97
2023-01-23T21:01:30.214Z,102769.50
2023-01-23T21:03:57.363Z,102778.91
2023-01-23T21:06:24.442Z,102771.03
2023-01-23T21:08:51.546Z,102771.81
2023-01-23T21:11:20.257Z,102771.63
2023-01-23T21:13:53.753Z,102763.19
2023-01-23T21:16:20.997Z,102758.53
2023-01-23T21:18:48.469Z,102763.19
2023-01-23T21:21:18.464Z,102778.69
2023-01-23T21:23:49.007Z,102768.50
2023-01-23T21:26:22.564Z,102768.72
2023-01-23T21:28:51.019Z,102768.72
2023-01-23T21:31:22.105Z,102726.00
2023-01-23T21:33:50.039Z,102770.16
2023-01-23T21:36:20.633Z,102786.44
2023-01-23T21:38:48.248Z,102783.03
2023-01-23T21:41:15.798Z,102778.00
2023-01-23T21:43:43.037Z,102779.81
2023-01-23T21:46:10.693Z,102765.66
2023-01-23T21:48:37.910Z,102758.00
2023-01-23T21:51:12.250Z,102767.63
2023-01-23T21:53:42.862Z,102777.13
2023-01-23T21:56:10.969Z,102777.13
2023-01-23T21:58:38.198Z,102773.59
2023-01-23T22:01:30.198Z,102778.69
2023-01-23T22:04:09.315Z,102780.47
2023-01-23T22:06:38.507Z,102780.47
2023-01-23T22:09:07.744Z,102782.00
2023-01-23T22:11:35.360Z,102766.09
2023-01-23T22:14:02.800Z,102784.22
2023-01-23T22:16:46.854Z,102774.50
2023-01-23T22:19:16.803Z,102783.56
2023-01-23T22:21:46.645Z,102781.00
2023-01-23T22:24:15.340Z,102775.16
2023-01-23T22:26:42.920Z,102769.28
2023-01-23T22:29:12.338Z,102770.28
2023-01-23T22:31:39.500Z,102763.41
2023-01-23T22:34:06.640Z,102772.38
2023-01-23T22:36:33.693Z,102735.75
2023-01-23T22:39:00.901Z,102758.97
2023-01-23T22:41:28.818Z,102756.31
2023-01-23T22:43:56.891Z,102763.41
2023-01-23T22:46:24.275Z,102765.81
2023-01-23T22:48:51.915Z,102762.28
2023-01-23T22:51:24.211Z,102759.53
2023-01-23T22:53:52.453Z,102764.41
2023-01-23T22:56:19.597Z,102768.72
2023-01-23T22:58:47.781Z,102762.06
2023-01-23T23:01:15.493Z,102763.59
2023-01-23T23:03:43.269Z,102769.38
2023-01-23T23:06:13.874Z,102770.50
2023-01-23T23:08:41.254Z,102766.50
2023-01-23T23:11:13.836Z,102763.19
2023-01-23T23:13:41.289Z,102765.81
2023-01-23T23:16:12.171Z,102760.72
2023-01-23T23:18:39.505Z,102753.88
2023-01-23T23:21:09.825Z,102760.72
2023-01-23T23:23:37.116Z,102759.72
2023-01-23T23:26:05.520Z,102760.72
2023-01-23T23:28:32.991Z,102763.84
2023-01-23T23:31:00.085Z,102762.28
2023-01-23T23:33:27.847Z,102757.19
2023-01-23T23:35:55.108Z,102753.88
2023-01-23T23:38:22.343Z,102752.09
2023-01-23T23:40:57.673Z,102750.34
2023-01-23T23:43:25.005Z,102745.03
2023-01-23T23:45:57.603Z,102746.56
2023-01-23T23:48:26.050Z,102737.94
2023-01-23T23:50:53.862Z,102725.56
2023-01-23T23:53:21.127Z,102757.19
2023-01-23T23:55:48.901Z,102753.66
2023-01-23T23:58:16.352Z,102751.88
